Sterling, NY

10:02 AM EST on January 16, 2017 (GMT -0500)
ME5043 | | Change Station
Active Advisory: Freezing Rain Advisory

Elev 823 ft 43.30 °N, 76.70 °W | Updated 15 minutes ago

Partly Cloudy
Partly Cloudy
28.0 °F
Feels Like 19 °F
N
9.0
Wind Variable Wind from South

Today
High -- | Low -- °F
--% Chance of Precip.
Yesterday
High -- | Low -- °F
Precip. -- in
Pressure 30.40 in
Visibility 10.0 miles
Clouds Clear
Windchill 19 °F
Dew Point 23 °F
Humidity 82%
Rainfall 0.00 in
Snow Depth Not available.
7:35 AM 4:57 PM
Waning Gibbous, 80% visible
METAR KFZY 161454Z AUTO 18005KT 10SM CLR M03/M06 A3038 RMK AO2 SLP293 I3000 T10281061 51003
Pressure 30.40 in
Visibility 10.0 miles
Clouds Clear
Windchill 19 °F
Dew Point 23 °F
Humidity 82%
Rainfall 0.00 in
Snow Depth Not available.
7:35 AM 4:57 PM
Waning Gibbous, 80% visible
METAR KFZY 161454Z AUTO 18005KT 10SM CLR M03/M06 A3038 RMK AO2 SLP293 I3000 T10281061 51003

Get Your Daily Forecast Email!

Thanks for signing up!

Be on the lookout for a verification email in your inbox.

You'll start receiving the daily forecast at 8 AM.

×

10-Day Weather Forecast

Almanac

Astronomy

Jan. 16, 2017 Rise Set
Actual Time
Civil Twilight
Nautical Twilight
Astronomical Twilight
Moon
Length of Visible Light
Length of Day
Tomorrow will be .
, % of the Moon is Illuminated

Today's Extremes

State Highs State Lows

Community

WunderPhotos

Upload Photos

1,962,540 photos uploaded!

WunderBlog® & News

Nearby

Air Quality

  Air Quality AQ Index Pollutant
Not available.

Snow Depth

Station Depth Elevation

Earthquake Activity

City Distance Mag. Time & Date
Minimum magnitude displayed is 2.5.

Coastal Water Temperatures

Place Temperature

Stations

Nearby Weather Stations

Station Location Temp. Windchill Dew Point Humidity Wind Precip. Elev Updated Type
                   

Watches & Warnings

Freezing Rain Advisory
Issued: 6:46 AM EST Jan. 16, 2017 – National Weather Service

... Freezing Rain Advisory remains in effect from 4 am to 4 PM EST
Tuesday...

* locations... northern Cayuga and Oswego counties.

* Timing... from late tonight through late Tuesday afternoon.

* Accumulations... ice accumulating up to one tenth of an inch.

* Impacts... very slippery conditions on untreated roads and
sidewalks.

Precautionary/preparedness actions...

A Freezing Rain Advisory is issued when icing is expected in the
affected areas... but not enough to disrupt travel or damage
trees and power lines. Instead... patches of ice will cause slick
spots on roadways and sidewalks. Walking and driving could
therefore be difficult... but not impossible.

Stay tuned to NOAA Weather Radio or your favorite source of
weather information for the latest updates. Additional details
can also be found at www.Weather.Gov/Buffalo.

Report ice accumulation to the National Weather Service in
Buffalo by sending an email to bufstorm.Report@noaa.Gov... posting
to the NWS Buffalo facebook Page... or tweet... using the hashtag
bufwx